Terminal Aerodrome Forecast
Issued by NWS

Home | Current Version | Previous Version | Text Only | Print | Product List | Glossary Off
Versions: 1 2 3 4 5 6 7 8 9 10 11 12 13 14 15 16 17 18 19 20 21 22 23 24 25 26 27

732
FTUS43 KICT 281720
TAFHUT
TAF
KHUT 281720Z 2818/2918 10012G20KT P6SM OVC015
     FM282000 10015KT P6SM VCSH OVC015
     FM290000 08016G24KT 5SM SHRA OVC010
      TEMPO 2901/2905 1SM SHRA OVC003
     FM290500 07016G27KT 2SM SHRA OVC003=

USA.gov is the U.S. government's official web portal to all federal, state and local government web resources and services.